createdAt,value
2022-08-14T00:02:06.039Z,12.70
2022-08-14T00:04:48.312Z,12.40
2022-08-14T00:07:30.310Z,11.70
2022-08-14T00:10:53.031Z,11.00
2022-08-14T00:13:21.685Z,10.70
2022-08-14T00:16:04.158Z,11.30
2022-08-14T00:18:49.739Z,10.90
2022-08-14T00:21:51.001Z,11.50
2022-08-14T00:24:32.987Z,10.10
2022-08-14T00:27:17.135Z,10.50
2022-08-14T00:30:00.277Z,11.00
2022-08-14T00:32:51.947Z,10.40
2022-08-14T00:36:36.496Z,10.10
2022-08-14T00:38:37.590Z,10.40
2022-08-14T00:41:19.588Z,11.00
2022-08-14T00:44:02.507Z,10.60
2022-08-14T00:46:49.626Z,10.60
2022-08-14T00:49:38.185Z,11.40
2022-08-14T00:52:26.115Z,11.40
2022-08-14T00:55:10.092Z,10.60
2022-08-14T00:58:14.277Z,10.40
2022-08-14T01:00:57.737Z,9.90
2022-08-14T01:03:42.421Z,11.20
2022-08-14T01:06:30.369Z,10.20
2022-08-14T01:09:16.708Z,10.70
2022-08-14T01:12:02.658Z,10.10
2022-08-14T01:14:45.769Z,9.80
2022-08-14T01:17:50.628Z,9.20
2022-08-14T01:20:53.034Z,9.40
2022-08-14T01:23:46.826Z,9.20
2022-08-14T01:26:35.200Z,9.60
2022-08-14T01:29:43.167Z,9.80
2022-08-14T01:32:24.343Z,9.30
2022-08-14T01:35:20.849Z,9.10
2022-08-14T01:38:15.374Z,8.60
2022-08-14T01:40:58.906Z,9.00
2022-08-14T01:43:56.677Z,10.20
2022-08-14T01:46:47.376Z,9.90
2022-08-14T01:49:46.271Z,10.10
2022-08-14T01:52:59.977Z,8.80
2022-08-14T01:55:44.625Z,8.90
2022-08-14T01:58:29.861Z,9.00
2022-08-14T02:01:16.102Z,8.90
2022-08-14T02:03:59.495Z,9.00
2022-08-14T02:06:42.291Z,9.00
2022-08-14T02:09:24.904Z,8.90
2022-08-14T02:12:09.141Z,9.40
2022-08-14T02:15:01.429Z,8.60
2022-08-14T02:17:43.903Z,7.90
2022-08-14T02:20:26.121Z,7.80
2022-08-14T02:23:09.048Z,8.30
2022-08-14T02:25:54.551Z,8.30
2022-08-14T02:28:58.381Z,8.50
2022-08-14T02:31:44.062Z,9.30
2022-08-14T02:34:29.489Z,8.90
2022-08-14T02:37:12.917Z,8.10
2022-08-14T02:39:57.766Z,8.20
2022-08-14T02:42:40.491Z,8.50
2022-08-14T02:45:38.361Z,8.70
2022-08-14T02:49:00.958Z,8.40
2022-08-14T02:51:36.386Z,8.50
2022-08-14T02:54:20.101Z,8.00
2022-08-14T02:57:14.049Z,9.40
2022-08-14T02:59:59.553Z,9.50
2022-08-14T03:02:56.342Z,10.70
2022-08-14T03:05:41.810Z,9.30
2022-08-14T03:08:32.020Z,9.60
2022-08-14T03:11:14.477Z,8.90
2022-08-14T03:13:59.561Z,9.40
2022-08-14T03:16:41.954Z,9.50
2022-08-14T03:19:23.849Z,8.70
2022-08-14T03:22:09.207Z,8.60
2022-08-14T03:24:51.837Z,8.90
2022-08-14T03:27:35.524Z,9.80
2022-08-14T03:30:37.084Z,8.40
2022-08-14T03:33:22.103Z,9.10
2022-08-14T03:37:51.592Z,8.90
2022-08-14T03:39:22.017Z,8.10
2022-08-14T03:45:19.412Z,9.40
2022-08-14T03:48:26.735Z,8.60
2022-08-14T03:51:14.298Z,9.60
2022-08-14T03:53:58.744Z,10.00
2022-08-14T03:56:44.994Z,9.00
2022-08-14T03:59:28.479Z,9.30
2022-08-14T04:02:33.408Z,9.70
2022-08-14T04:05:16.370Z,9.20
2022-08-14T04:08:08.432Z,9.40
2022-08-14T04:11:07.845Z,8.60
2022-08-14T04:13:52.282Z,8.80
2022-08-14T04:16:34.586Z,9.20
2022-08-14T04:19:20.653Z,10.30
2022-08-14T04:22:04.376Z,9.00
2022-08-14T04:24:46.518Z,9.40
2022-08-14T04:27:31.589Z,9.70
2022-08-14T04:30:39.494Z,9.10
2022-08-14T04:33:25.272Z,8.80
2022-08-14T04:36:09.289Z,9.00
2022-08-14T04:39:17.160Z,9.30
2022-08-14T04:42:18.007Z,9.30
2022-08-14T04:45:01.287Z,10.10
2022-08-14T04:48:03.380Z,10.00
2022-08-14T04:50:54.007Z,9.80
2022-08-14T04:53:42.872Z,9.00
2022-08-14T04:56:31.507Z,9.20
2022-08-14T04:59:16.043Z,8.90
2022-08-14T05:01:58.597Z,9.50
2022-08-14T05:04:45.464Z,8.90
2022-08-14T05:07:54.180Z,10.00
2022-08-14T05:10:46.250Z,8.70
2022-08-14T05:13:53.217Z,9.60
2022-08-14T05:16:36.740Z,9.50
2022-08-14T05:19:27.167Z,10.70
2022-08-14T05:22:15.702Z,10.10
2022-08-14T05:25:00.142Z,9.70
2022-08-14T05:27:42.755Z,10.10
2022-08-14T05:30:24.691Z,9.50
2022-08-14T05:33:07.777Z,9.10
2022-08-14T05:35:49.671Z,10.20
2022-08-14T05:38:42.162Z,8.70
2022-08-14T05:41:27.729Z,10.20
2022-08-14T05:44:30.681Z,9.80
2022-08-14T05:47:15.353Z,10.00
2022-08-14T05:49:58.779Z,9.50
2022-08-14T05:52:40.841Z,9.80
2022-08-14T05:55:23.365Z,8.80
2022-08-14T05:58:08.726Z,8.60
2022-08-14T06:00:52.403Z,8.80
2022-08-14T06:03:35.735Z,9.00
2022-08-14T06:06:18.857Z,8.90
2022-08-14T06:09:00.752Z,9.10
2022-08-14T06:11:43.198Z,9.00
2022-08-14T06:14:25.103Z,9.10
2022-08-14T06:17:08.591Z,9.20
2022-08-14T06:19:50.588Z,8.50
2022-08-14T06:22:32.383Z,8.90
2022-08-14T06:25:19.551Z,8.90
2022-08-14T06:28:02.087Z,8.80
2022-08-14T06:30:47.434Z,9.50
2022-08-14T06:35:01.437Z,8.40
2022-08-14T06:36:31.764Z,9.10
2022-08-14T06:39:13.658Z,9.30
2022-08-14T06:41:59.992Z,9.20
2022-08-14T06:44:42.568Z,8.90
2022-08-14T06:47:24.669Z,8.30
2022-08-14T06:50:12.507Z,8.50
2022-08-14T06:52:55.526Z,8.60
2022-08-14T06:55:40.787Z,9.50
2022-08-14T06:58:40.105Z,9.30
2022-08-14T07:01:40.839Z,9.30
2022-08-14T07:04:41.887Z,8.70
2022-08-14T07:10:16.849Z,8.70
2022-08-14T07:13:03.606Z,8.90
2022-08-14T07:15:50.917Z,8.60
2022-08-14T07:18:37.494Z,9.50
2022-08-14T07:21:22.854Z,9.00
2022-08-14T07:24:04.960Z,9.00
2022-08-14T07:26:51.562Z,9.00
2022-08-14T07:29:33.560Z,9.40
2022-08-14T07:32:20.069Z,9.20
2022-08-14T07:35:04.570Z,8.50
2022-08-14T07:37:49.127Z,8.70
2022-08-14T07:40:35.367Z,8.80
2022-08-14T07:43:18.092Z,8.40
2022-08-14T07:46:04.748Z,8.60
2022-08-14T07:48:48.847Z,8.30
2022-08-14T07:51:37.129Z,8.20
2022-08-14T07:54:22.927Z,8.30
2022-08-14T07:57:24.804Z,7.90
2022-08-14T08:00:29.936Z,7.40
2022-08-14T08:03:15.130Z,7.10
2022-08-14T08:05:57.977Z,7.50
2022-08-14T08:08:40.589Z,7.80
2022-08-14T08:11:22.996Z,7.20
2022-08-14T08:14:16.329Z,6.70
2022-08-14T08:17:00.304Z,6.60
2022-08-14T08:19:42.098Z,7.20
2022-08-14T08:22:32.547Z,6.00
2022-08-14T08:25:18.163Z,6.80
2022-08-14T08:28:09.049Z,6.80
2022-08-14T08:31:08.269Z,6.30
2022-08-14T08:33:54.587Z,6.10
2022-08-14T08:36:46.783Z,7.00
2022-08-14T08:39:30.846Z,6.90
2022-08-14T08:42:41.233Z,7.90
2022-08-14T08:45:27.957Z,6.00
2022-08-14T08:48:20.692Z,6.30
2022-08-14T08:51:34.495Z,6.70
2022-08-14T08:54:19.899Z,6.30
2022-08-14T08:57:04.812Z,5.70
2022-08-14T08:59:54.951Z,6.60
2022-08-14T09:02:38.921Z,6.60
2022-08-14T09:05:25.449Z,5.70
2022-08-14T09:08:26.654Z,5.70
2022-08-14T09:11:19.909Z,5.80
2022-08-14T09:14:05.539Z,6.00
2022-08-14T09:16:51.702Z,5.60
2022-08-14T09:19:37.283Z,6.20
2022-08-14T09:22:47.653Z,6.00
2022-08-14T09:25:29.793Z,5.60
2022-08-14T09:28:27.146Z,6.10
2022-08-14T09:31:17.370Z,5.70
2022-08-14T09:34:26.910Z,5.10
2022-08-14T09:40:40.445Z,6.00
2022-08-14T09:43:25.101Z,5.40
2022-08-14T09:46:25.738Z,5.50
2022-08-14T09:49:39.959Z,6.50
2022-08-14T09:52:34.236Z,5.90
2022-08-14T09:55:24.489Z,5.90
2022-08-14T09:58:19.476Z,7.20
2022-08-14T10:01:15.143Z,6.50
2022-08-14T10:03:59.745Z,6.60
2022-08-14T10:06:46.179Z,6.40
2022-08-14T10:09:33.462Z,6.50
2022-08-14T10:12:28.584Z,6.80
2022-08-14T10:15:27.831Z,7.30
2022-08-14T10:18:18.225Z,7.80
2022-08-14T10:21:09.571Z,9.00
2022-08-14T10:23:52.788Z,9.20
2022-08-14T10:26:36.791Z,8.90
2022-08-14T10:29:23.460Z,8.40
2022-08-14T10:32:17.897Z,10.00
2022-08-14T10:35:14.432Z,9.00
2022-08-14T10:38:00.874Z,10.00
2022-08-14T10:40:52.073Z,10.70
2022-08-14T10:44:05.282Z,10.20
2022-08-14T10:47:40.162Z,9.70
2022-08-14T10:50:14.966Z,10.70
2022-08-14T10:52:59.966Z,9.80
2022-08-14T10:55:45.688Z,10.30
2022-08-14T10:58:32.990Z,10.10
2022-08-14T11:01:16.944Z,10.30
2022-08-14T11:03:59.284Z,9.80
2022-08-14T11:06:52.670Z,10.60
2022-08-14T11:09:34.774Z,11.00
2022-08-14T11:12:33.705Z,11.20
2022-08-14T11:15:27.779Z,10.20
2022-08-14T11:18:20.428Z,11.00
2022-08-14T11:21:21.468Z,10.80
2022-08-14T11:24:54.270Z,9.60
2022-08-14T11:27:16.616Z,10.70
2022-08-14T11:30:49.803Z,10.20
2022-08-14T11:33:13.454Z,10.60
2022-08-14T11:36:02.062Z,10.90
2022-08-14T11:38:46.510Z,10.80
2022-08-14T11:41:29.286Z,10.70
2022-08-14T11:44:45.066Z,10.30
2022-08-14T11:47:21.443Z,10.90
2022-08-14T11:50:33.976Z,10.20
2022-08-14T11:53:32.304Z,10.90
2022-08-14T11:56:14.312Z,10.90
2022-08-14T11:59:00.326Z,11.40
2022-08-14T12:01:42.911Z,10.10
2022-08-14T12:04:32.151Z,10.40
2022-08-14T12:07:15.516Z,10.50
2022-08-14T12:09:59.480Z,10.70
2022-08-14T12:12:42.328Z,11.10
2022-08-14T12:15:44.854Z,12.40
2022-08-14T12:18:39.496Z,10.70
2022-08-14T12:21:25.533Z,11.40
2022-08-14T12:24:10.115Z,12.30
2022-08-14T12:27:13.430Z,11.70
2022-08-14T12:30:00.221Z,12.00
2022-08-14T12:32:48.648Z,12.20
2022-08-14T12:35:40.177Z,12.20
2022-08-14T12:38:43.660Z,13.00
2022-08-14T12:41:37.032Z,11.80
2022-08-14T12:44:30.509Z,13.60
2022-08-14T12:47:17.250Z,14.40
2022-08-14T12:50:00.147Z,12.90
2022-08-14T12:53:01.901Z,22.20
2022-08-14T12:56:18.304Z,18.40
2022-08-14T12:59:02.294Z,17.20
2022-08-14T13:02:01.783Z,13.60
2022-08-14T13:04:49.389Z,13.30
2022-08-14T13:07:33.248Z,13.20
2022-08-14T13:10:47.757Z,12.30
2022-08-14T13:13:19.438Z,14.50
2022-08-14T13:16:02.986Z,12.50
2022-08-14T13:19:03.616Z,13.40
2022-08-14T13:22:05.889Z,13.10
2022-08-14T13:24:50.652Z,12.80
2022-08-14T13:27:39.200Z,12.50
2022-08-14T13:30:25.022Z,11.50
2022-08-14T13:33:07.604Z,11.70
2022-08-14T13:35:57.231Z,14.70
2022-08-14T13:38:43.702Z,11.70
2022-08-14T13:41:34.700Z,11.10
2022-08-14T13:44:24.090Z,10.90
2022-08-14T13:47:08.905Z,10.30
2022-08-14T13:49:57.793Z,10.40
2022-08-14T13:52:54.767Z,10.30
2022-08-14T13:55:37.963Z,10.50
2022-08-14T13:58:34.101Z,9.90
2022-08-14T14:01:18.888Z,10.70
2022-08-14T14:04:04.669Z,10.10
2022-08-14T14:06:52.829Z,11.20
2022-08-14T14:09:52.686Z,10.00
2022-08-14T14:12:41.530Z,10.30
2022-08-14T14:15:33.898Z,10.40
2022-08-14T14:18:34.028Z,10.10
2022-08-14T14:21:18.793Z,10.60
2022-08-14T14:24:06.329Z,9.30
2022-08-14T14:26:50.519Z,8.80
2022-08-14T14:29:33.795Z,9.00
2022-08-14T14:32:32.058Z,9.70
2022-08-14T14:35:18.069Z,9.20
2022-08-14T14:38:00.519Z,9.80
2022-08-14T14:40:53.669Z,9.10
2022-08-14T14:43:47.207Z,10.40
2022-08-14T14:46:37.165Z,10.30
2022-08-14T14:49:21.848Z,10.00
2022-08-14T14:52:05.612Z,10.70
2022-08-14T14:54:48.814Z,9.30
2022-08-14T14:57:35.033Z,9.70
2022-08-14T15:00:20.334Z,9.70
2022-08-14T15:03:03.335Z,10.00
2022-08-14T15:05:46.128Z,9.70
2022-08-14T15:08:55.812Z,8.80
2022-08-14T15:11:32.960Z,9.70
2022-08-14T15:14:54.665Z,8.90
2022-08-14T15:17:17.434Z,9.80
2022-08-14T15:19:59.637Z,8.60
2022-08-14T15:22:43.595Z,9.40
2022-08-14T15:25:33.566Z,8.00
2022-08-14T15:28:21.176Z,8.20
2022-08-14T15:31:05.989Z,8.30
2022-08-14T15:34:43.850Z,9.00
2022-08-14T15:37:22.896Z,9.30
2022-08-14T15:40:10.131Z,9.70
2022-08-14T15:43:09.036Z,8.90
2022-08-14T15:45:51.727Z,9.10
2022-08-14T15:48:35.987Z,8.50
2022-08-14T15:51:28.245Z,10.00
2022-08-14T15:54:13.267Z,9.40
2022-08-14T15:57:04.678Z,9.20
2022-08-14T16:00:04.736Z,9.80
2022-08-14T16:02:54.953Z,9.60
2022-08-14T16:05:38.483Z,9.50
2022-08-14T16:08:26.619Z,10.00
2022-08-14T16:11:12.891Z,9.70
2022-08-14T16:13:57.474Z,9.70
2022-08-14T16:16:51.025Z,10.40
2022-08-14T16:22:58.694Z,9.80
2022-08-14T16:25:47.444Z,9.80
2022-08-14T16:28:37.255Z,8.80
2022-08-14T16:31:26.513Z,10.00
2022-08-14T16:34:46.139Z,9.70
2022-08-14T16:37:21.600Z,9.30
2022-08-14T16:40:07.514Z,10.30
2022-08-14T16:40:23.909Z,10.10
2022-08-14T16:43:03.909Z,10.50
2022-08-14T16:45:57.063Z,10.20
2022-08-14T16:48:55.105Z,10.50
2022-08-14T16:51:41.720Z,9.90
2022-08-14T16:54:35.387Z,10.30
2022-08-14T16:57:35.261Z,11.10
2022-08-14T17:00:28.810Z,9.70
2022-08-14T17:03:13.095Z,9.40
2022-08-14T17:05:55.973Z,10.00
2022-08-14T17:08:46.234Z,10.20
2022-08-14T17:11:31.634Z,9.70
2022-08-14T17:14:14.761Z,10.00
2022-08-14T17:16:59.433Z,9.70
2022-08-14T17:19:42.038Z,9.90
2022-08-14T17:22:47.992Z,10.30
2022-08-14T17:25:37.287Z,10.60
2022-08-14T17:28:51.504Z,11.20
2022-08-14T17:31:58.718Z,10.60
2022-08-14T17:34:53.122Z,10.90
2022-08-14T17:37:38.138Z,11.20
2022-08-14T17:40:26.150Z,11.20
2022-08-14T17:43:09.360Z,11.80
2022-08-14T17:45:51.866Z,10.50
2022-08-14T17:49:10.546Z,11.00
2022-08-14T17:51:58.946Z,11.00
2022-08-14T17:54:44.611Z,10.50
2022-08-14T17:57:28.366Z,11.80
2022-08-14T18:00:14.774Z,10.90
2022-08-14T18:02:58.099Z,11.30
2022-08-14T18:06:07.620Z,11.70
2022-08-14T18:08:47.803Z,12.00
2022-08-14T18:11:46.242Z,11.40
2022-08-14T18:14:33.088Z,11.50
2022-08-14T18:17:31.066Z,11.10
2022-08-14T18:21:23.031Z,11.80
2022-08-14T18:23:18.924Z,12.10
2022-08-14T18:26:05.329Z,11.70
2022-08-14T18:28:51.414Z,12.30
2022-08-14T18:31:42.157Z,12.00
2022-08-14T18:34:38.228Z,12.70
2022-08-14T18:37:33.971Z,12.40
2022-08-14T18:40:15.805Z,12.10
2022-08-14T18:43:03.526Z,11.80
2022-08-14T18:46:00.929Z,12.80
2022-08-14T18:48:51.093Z,12.60
2022-08-14T18:51:46.155Z,12.30
2022-08-14T18:54:34.386Z,11.90
2022-08-14T18:57:20.180Z,12.90
2022-08-14T19:00:40.272Z,12.30
2022-08-14T19:03:37.136Z,12.20
2022-08-14T19:06:19.525Z,12.70
2022-08-14T19:09:04.084Z,11.70
2022-08-14T19:11:50.481Z,12.70
2022-08-14T19:14:50.710Z,13.10
2022-08-14T19:18:14.266Z,13.30
2022-08-14T19:20:52.778Z,13.60
2022-08-14T19:23:42.157Z,13.90
2022-08-14T19:26:36.040Z,14.20
2022-08-14T19:29:38.338Z,13.60
2022-08-14T19:32:41.067Z,13.30
2022-08-14T19:35:49.048Z,15.20
2022-08-14T19:38:53.968Z,14.20
2022-08-14T19:41:38.029Z,14.50
2022-08-14T19:44:31.750Z,14.80
2022-08-14T19:47:15.200Z,14.70
2022-08-14T19:50:08.358Z,14.60
2022-08-14T19:53:16.602Z,13.90
2022-08-14T19:56:04.912Z,14.20
2022-08-14T19:58:54.942Z,15.30
2022-08-14T20:01:40.414Z,14.50
2022-08-14T20:04:45.962Z,15.30
2022-08-14T20:07:59.092Z,15.80
2022-08-14T20:11:08.194Z,15.50
2022-08-14T20:13:40.980Z,14.90
2022-08-14T20:16:31.881Z,15.70
2022-08-14T20:19:17.819Z,16.70
2022-08-14T20:22:04.849Z,16.60
2022-08-14T20:25:16.649Z,15.60
2022-08-14T20:27:59.401Z,15.20
2022-08-14T20:30:41.725Z,16.20
2022-08-14T20:33:24.664Z,16.30
2022-08-14T20:36:25.930Z,15.60
2022-08-14T20:39:15.763Z,15.40
2022-08-14T20:42:19.008Z,16.60
2022-08-14T20:45:21.362Z,16.20
2022-08-14T20:48:09.139Z,15.40
2022-08-14T20:50:52.091Z,17.70
2022-08-14T20:53:36.179Z,15.60
2022-08-14T20:56:30.333Z,16.00
2022-08-14T20:59:19.185Z,16.10
2022-08-14T21:02:29.513Z,16.40
2022-08-14T21:05:16.122Z,16.30
2022-08-14T21:08:08.502Z,16.40
2022-08-14T21:11:03.018Z,16.10
2022-08-14T21:14:20.944Z,16.30
2022-08-14T21:16:58.058Z,16.20
2022-08-14T21:19:40.720Z,15.90
2022-08-14T21:22:25.546Z,17.40
2022-08-14T21:25:10.869Z,17.80
2022-08-14T21:27:56.650Z,17.40
2022-08-14T21:30:47.087Z,16.90
2022-08-14T21:33:35.788Z,18.20
2022-08-14T21:36:21.988Z,18.00
2022-08-14T21:39:04.404Z,17.00
2022-08-14T21:41:50.246Z,18.20
2022-08-14T21:44:43.463Z,18.70
2022-08-14T21:47:26.270Z,19.40
2022-08-14T21:50:56.504Z,19.00
2022-08-14T21:53:14.560Z,19.10
2022-08-14T21:55:57.457Z,18.80
2022-08-14T21:58:52.785Z,18.60
2022-08-14T22:02:01.331Z,18.40
2022-08-14T22:04:41.348Z,19.20
2022-08-14T22:07:29.234Z,18.60
2022-08-14T22:10:14.289Z,19.70
2022-08-14T22:13:05.440Z,19.40
2022-08-14T22:15:50.132Z,21.30
2022-08-14T22:18:34.473Z,19.40
2022-08-14T22:21:19.645Z,19.30
2022-08-14T22:24:01.746Z,20.60
2022-08-14T22:26:52.656Z,20.60
2022-08-14T22:29:35.499Z,21.00
2022-08-14T22:32:18.798Z,19.80
2022-08-14T22:35:09.176Z,22.50
2022-08-14T22:38:01.485Z,21.40
2022-08-14T22:41:18.219Z,21.00
2022-08-14T22:44:01.040Z,23.20
2022-08-14T22:46:45.311Z,22.50
2022-08-14T22:50:31.938Z,22.40
2022-08-14T22:52:33.242Z,20.30
2022-08-14T22:55:16.140Z,22.70
2022-08-14T22:57:59.416Z,24.30
2022-08-14T23:00:42.032Z,23.60
2022-08-14T23:03:25.261Z,23.00
2022-08-14T23:07:02.123Z,23.80
2022-08-14T23:09:36.137Z,23.00
2022-08-14T23:12:28.273Z,23.50
2022-08-14T23:15:13.457Z,25.30
2022-08-14T23:17:55.769Z,23.20
2022-08-14T23:20:39.736Z,24.00
2022-08-14T23:23:23.027Z,24.50
2022-08-14T23:26:47.992Z,23.50
2022-08-14T23:29:11.565Z,24.90
2022-08-14T23:31:57.015Z,24.00
2022-08-14T23:34:47.821Z,24.30
2022-08-14T23:37:33.586Z,24.40
2022-08-14T23:40:26.359Z,23.90
2022-08-14T23:43:14.798Z,22.90
2022-08-14T23:45:57.878Z,23.70
2022-08-14T23:48:40.826Z,23.30
2022-08-14T23:51:28.661Z,23.40
2022-08-14T23:54:48.944Z,23.80
2022-08-14T23:57:20.511Z,24.00
